sensor_id;sensor_type;location;lat;lon;timestamp;P1;durP1;ratioP1;P2;durP2;ratioP2
45867;SDS011;31582;45.490;7.860;2023-03-31T03:23:08;6.87;;;3.53;;
45867;SDS011;31582;45.490;7.860;2023-03-31T03:25:34;6.13;;;2.67;;
45867;SDS011;31582;45.490;7.860;2023-03-31T03:28:01;5.70;;;2.90;;
45867;SDS011;31582;45.490;7.860;2023-03-31T03:30:28;8.52;;;3.90;;
45867;SDS011;31582;45.490;7.860;2023-03-31T03:32:55;7.85;;;3.08;;
45867;SDS011;31582;45.490;7.860;2023-03-31T03:35:24;6.30;;;2.92;;
45867;SDS011;31582;45.490;7.860;2023-03-31T03:37:51;6.18;;;2.60;;
45867;SDS011;31582;45.490;7.860;2023-03-31T03:40:18;6.82;;;2.72;;
45867;SDS011;31582;45.490;7.860;2023-03-31T03:42:45;5.38;;;2.38;;
45867;SDS011;31582;45.490;7.860;2023-03-31T03:45:11;5.50;;;2.67;;
45867;SDS011;31582;45.490;7.860;2023-03-31T03:47:38;6.25;;;2.78;;
45867;SDS011;31582;45.490;7.860;2023-03-31T03:50:05;5.63;;;2.65;;
45867;SDS011;31582;45.490;7.860;2023-03-31T03:52:33;6.43;;;2.75;;
45867;SDS011;31582;45.490;7.860;2023-03-31T03:55:00;6.93;;;2.83;;
45867;SDS011;31582;45.490;7.860;2023-03-31T03:57:27;6.47;;;2.88;;
45867;SDS011;31582;45.490;7.860;2023-03-31T03:59:54;8.18;;;3.28;;
45867;SDS011;31582;45.490;7.860;2023-03-31T04:02:21;8.10;;;3.05;;
45867;SDS011;31582;45.490;7.860;2023-03-31T04:04:49;9.27;;;4.10;;
45867;SDS011;31582;45.490;7.860;2023-03-31T04:07:16;6.28;;;3.20;;
45867;SDS011;31582;45.490;7.860;2023-03-31T04:09:43;6.93;;;3.45;;
45867;SDS011;31582;45.490;7.860;2023-03-31T04:12:10;7.60;;;3.55;;
45867;SDS011;31582;45.490;7.860;2023-03-31T04:14:36;8.05;;;3.17;;
45867;SDS011;31582;45.490;7.860;2023-03-31T04:17:03;8.30;;;3.28;;
45867;SDS011;31582;45.490;7.860;2023-03-31T04:19:30;7.50;;;3.78;;
45867;SDS011;31582;45.490;7.860;2023-03-31T04:21:57;7.70;;;3.45;;
45867;SDS011;31582;45.490;7.860;2023-03-31T04:24:28;6.80;;;3.13;;
45867;SDS011;31582;45.490;7.860;2023-03-31T04:26:58;5.38;;;3.03;;
45867;SDS011;31582;45.490;7.860;2023-03-31T04:29:26;8.20;;;3.78;;
45867;SDS011;31582;45.490;7.860;2023-03-31T04:31:53;6.50;;;2.88;;
45867;SDS011;31582;45.490;7.860;2023-03-31T04:34:24;6.05;;;2.63;;
45867;SDS011;31582;45.490;7.860;2023-03-31T04:37:00;7.55;;;3.05;;
45867;SDS011;31582;45.490;7.860;2023-03-31T04:39:28;6.67;;;2.77;;
45867;SDS011;31582;45.490;7.860;2023-03-31T04:41:56;11.23;;;3.13;;
45867;SDS011;31582;45.490;7.860;2023-03-31T04:44:24;4.47;;;2.65;;
45867;SDS011;31582;45.490;7.860;2023-03-31T04:46:51;6.97;;;2.53;;
45867;SDS011;31582;45.490;7.860;2023-03-31T04:49:18;6.65;;;2.70;;
45867;SDS011;31582;45.490;7.860;2023-03-31T04:51:46;8.40;;;6.18;;
45867;SDS011;31582;45.490;7.860;2023-03-31T04:54:12;9.27;;;4.10;;
45867;SDS011;31582;45.490;7.860;2023-03-31T04:56:39;4.88;;;2.88;;
45867;SDS011;31582;45.490;7.860;2023-03-31T04:59:06;7.50;;;3.38;;
45867;SDS011;31582;45.490;7.860;2023-03-31T05:01:33;9.77;;;3.50;;
45867;SDS011;31582;45.490;7.860;2023-03-31T05:04:02;5.70;;;2.95;;
45867;SDS011;31582;45.490;7.860;2023-03-31T05:06:30;9.93;;;3.42;;
45867;SDS011;31582;45.490;7.860;2023-03-31T05:08:57;5.75;;;3.30;;
45867;SDS011;31582;45.490;7.860;2023-03-31T05:11:23;6.30;;;3.38;;
45867;SDS011;31582;45.490;7.860;2023-03-31T05:13:51;8.68;;;3.45;;
45867;SDS011;31582;45.490;7.860;2023-03-31T05:16:18;7.03;;;3.28;;
45867;SDS011;31582;45.490;7.860;2023-03-31T05:18:45;10.13;;;3.20;;
45867;SDS011;31582;45.490;7.860;2023-03-31T05:21:16;6.30;;;2.88;;
45867;SDS011;31582;45.490;7.860;2023-03-31T05:23:45;8.70;;;2.95;;
45867;SDS011;31582;45.490;7.860;2023-03-31T05:26:12;7.20;;;2.90;;
45867;SDS011;31582;45.490;7.860;2023-03-31T05:28:40;11.40;;;3.83;;
45867;SDS011;31582;45.490;7.860;2023-03-31T05:31:07;6.80;;;2.85;;
45867;SDS011;31582;45.490;7.860;2023-03-31T05:33:35;7.22;;;3.00;;
45867;SDS011;31582;45.490;7.860;2023-03-31T05:36:08;7.70;;;3.28;;
45867;SDS011;31582;45.490;7.860;2023-03-31T05:38:36;4.55;;;2.40;;
45867;SDS011;31582;45.490;7.860;2023-03-31T05:41:03;8.63;;;5.00;;
45867;SDS011;31582;45.490;7.860;2023-03-31T05:43:32;6.70;;;3.83;;
45867;SDS011;31582;45.490;7.860;2023-03-31T05:45:59;5.85;;;3.75;;
45867;SDS011;31582;45.490;7.860;2023-03-31T05:48:27;6.30;;;3.42;;
45867;SDS011;31582;45.490;7.860;2023-03-31T05:50:57;6.28;;;2.92;;
45867;SDS011;31582;45.490;7.860;2023-03-31T05:53:24;6.35;;;3.08;;
45867;SDS011;31582;45.490;7.860;2023-03-31T05:55:56;3.58;;;2.15;;
45867;SDS011;31582;45.490;7.860;2023-03-31T05:58:27;5.93;;;2.83;;
45867;SDS011;31582;45.490;7.860;2023-03-31T06:01:05;7.70;;;2.67;;
45867;SDS011;31582;45.490;7.860;2023-03-31T06:03:45;6.72;;;2.92;;
45867;SDS011;31582;45.490;7.860;2023-03-31T06:06:12;4.97;;;2.23;;
45867;SDS011;31582;45.490;7.860;2023-03-31T06:08:40;6.43;;;2.95;;
45867;SDS011;31582;45.490;7.860;2023-03-31T06:11:09;6.38;;;3.38;;
45867;SDS011;31582;45.490;7.860;2023-03-31T06:13:38;5.70;;;3.03;;
45867;SDS011;31582;45.490;7.860;2023-03-31T06:16:06;6.67;;;3.40;;
45867;SDS011;31582;45.490;7.860;2023-03-31T06:18:35;4.65;;;2.70;;
45867;SDS011;31582;45.490;7.860;2023-03-31T06:21:02;6.93;;;2.95;;
45867;SDS011;31582;45.490;7.860;2023-03-31T06:23:30;5.28;;;2.67;;
45867;SDS011;31582;45.490;7.860;2023-03-31T06:26:04;6.20;;;2.50;;
45867;SDS011;31582;45.490;7.860;2023-03-31T06:28:34;5.18;;;2.75;;
45867;SDS011;31582;45.490;7.860;2023-03-31T06:31:02;5.32;;;2.72;;
45867;SDS011;31582;45.490;7.860;2023-03-31T06:33:31;8.55;;;2.88;;
45867;SDS011;31582;45.490;7.860;2023-03-31T06:35:59;7.35;;;2.92;;
45867;SDS011;31582;45.490;7.860;2023-03-31T06:38:29;7.07;;;3.25;;
45867;SDS011;31582;45.490;7.860;2023-03-31T06:40:56;7.55;;;2.72;;
45867;SDS011;31582;45.490;7.860;2023-03-31T06:43:23;6.47;;;3.25;;
45867;SDS011;31582;45.490;7.860;2023-03-31T06:45:54;7.87;;;3.90;;
45867;SDS011;31582;45.490;7.860;2023-03-31T06:48:22;8.88;;;3.13;;
45867;SDS011;31582;45.490;7.860;2023-03-31T06:50:51;7.13;;;3.20;;
45867;SDS011;31582;45.490;7.860;2023-03-31T06:53:19;4.82;;;2.70;;
45867;SDS011;31582;45.490;7.860;2023-03-31T06:55:47;8.10;;;3.33;;
45867;SDS011;31582;45.490;7.860;2023-03-31T06:58:14;5.18;;;2.72;;
45867;SDS011;31582;45.490;7.860;2023-03-31T07:00:41;6.22;;;2.97;;
45867;SDS011;31582;45.490;7.860;2023-03-31T07:03:07;7.93;;;3.17;;
45867;SDS011;31582;45.490;7.860;2023-03-31T07:05:35;7.25;;;3.47;;
45867;SDS011;31582;45.490;7.860;2023-03-31T07:08:02;8.80;;;3.33;;
45867;SDS011;31582;45.490;7.860;2023-03-31T07:10:29;5.20;;;2.70;;
45867;SDS011;31582;45.490;7.860;2023-03-31T07:12:57;7.50;;;3.40;;
45867;SDS011;31582;45.490;7.860;2023-03-31T07:15:25;7.28;;;3.50;;
45867;SDS011;31582;45.490;7.860;2023-03-31T07:17:55;8.85;;;3.58;;
45867;SDS011;31582;45.490;7.860;2023-03-31T07:20:28;7.63;;;3.42;;
45867;SDS011;31582;45.490;7.860;2023-03-31T07:22:56;11.55;;;4.28;;
45867;SDS011;31582;45.490;7.860;2023-03-31T07:25:23;10.07;;;4.38;;
45867;SDS011;31582;45.490;7.860;2023-03-31T07:27:50;13.35;;;5.40;;
45867;SDS011;31582;45.490;7.860;2023-03-31T07:30:18;10.50;;;5.00;;
45867;SDS011;31582;45.490;7.860;2023-03-31T07:32:47;11.35;;;5.20;;
45867;SDS011;31582;45.490;7.860;2023-03-31T07:35:16;9.93;;;4.75;;
45867;SDS011;31582;45.490;7.860;2023-03-31T07:37:45;8.07;;;4.38;;
45867;SDS011;31582;45.490;7.860;2023-03-31T07:40:18;7.47;;;4.65;;
45867;SDS011;31582;45.490;7.860;2023-03-31T07:42:47;6.95;;;4.47;;
45867;SDS011;31582;45.490;7.860;2023-03-31T07:45:17;8.57;;;4.43;;
45867;SDS011;31582;45.490;7.860;2023-03-31T07:47:49;9.52;;;5.25;;
45867;SDS011;31582;45.490;7.860;2023-03-31T07:50:16;12.07;;;4.60;;
45867;SDS011;31582;45.490;7.860;2023-03-31T07:52:43;10.20;;;4.75;;
45867;SDS011;31582;45.490;7.860;2023-03-31T07:55:12;12.32;;;4.78;;
45867;SDS011;31582;45.490;7.860;2023-03-31T07:57:39;11.82;;;5.43;;
45867;SDS011;31582;45.490;7.860;2023-03-31T08:00:08;8.80;;;4.60;;
45867;SDS011;31582;45.490;7.860;2023-03-31T08:02:40;7.97;;;4.45;;
45867;SDS011;31582;45.490;7.860;2023-03-31T08:05:09;9.73;;;5.10;;
45867;SDS011;31582;45.490;7.860;2023-03-31T08:07:38;6.18;;;4.18;;
45867;SDS011;31582;45.490;7.860;2023-03-31T08:10:08;7.47;;;4.38;;
45867;SDS011;31582;45.490;7.860;2023-03-31T08:12:37;7.53;;;4.35;;
45867;SDS011;31582;45.490;7.860;2023-03-31T08:15:04;8.20;;;4.40;;
45867;SDS011;31582;45.490;7.860;2023-03-31T08:17:31;6.63;;;4.30;;
45867;SDS011;31582;45.490;7.860;2023-03-31T08:19:58;8.50;;;4.03;;
45867;SDS011;31582;45.490;7.860;2023-03-31T08:22:32;10.85;;;4.28;;
45867;SDS011;31582;45.490;7.860;2023-03-31T08:24:59;8.43;;;3.57;;
45867;SDS011;31582;45.490;7.860;2023-03-31T08:27:26;9.43;;;3.85;;
45867;SDS011;31582;45.490;7.860;2023-03-31T08:29:53;7.63;;;3.83;;
45867;SDS011;31582;45.490;7.860;2023-03-31T08:32:23;11.77;;;4.00;;
45867;SDS011;31582;45.490;7.860;2023-03-31T08:34:50;8.20;;;3.87;;
45867;SDS011;31582;45.490;7.860;2023-03-31T08:37:17;10.13;;;4.10;;
45867;SDS011;31582;45.490;7.860;2023-03-31T08:39:44;10.80;;;4.57;;
45867;SDS011;31582;45.490;7.860;2023-03-31T08:42:19;7.53;;;3.85;;
45867;SDS011;31582;45.490;7.860;2023-03-31T08:45:03;7.00;;;3.35;;
45867;SDS011;31582;45.490;7.860;2023-03-31T08:47:35;8.20;;;4.03;;
45867;SDS011;31582;45.490;7.860;2023-03-31T08:50:07;9.43;;;4.40;;
45867;SDS011;31582;45.490;7.860;2023-03-31T08:52:42;8.23;;;3.70;;
45867;SDS011;31582;45.490;7.860;2023-03-31T08:55:41;7.68;;;3.97;;
45867;SDS011;31582;45.490;7.860;2023-03-31T09:15:37;8.45;;;4.32;;
45867;SDS011;31582;45.490;7.860;2023-03-31T09:18:34;7.03;;;3.95;;
45867;SDS011;31582;45.490;7.860;2023-03-31T09:26:42;6.57;;;3.75;;
45867;SDS011;31582;45.490;7.860;2023-03-31T09:32:40;8.97;;;3.97;;
45867;SDS011;31582;45.490;7.860;2023-03-31T09:35:19;8.30;;;4.20;;
45867;SDS011;31582;45.490;7.860;2023-03-31T09:37:48;8.23;;;4.68;;
45867;SDS011;31582;45.490;7.860;2023-03-31T09:40:19;12.10;;;5.22;;
45867;SDS011;31582;45.490;7.860;2023-03-31T09:42:57;10.00;;;5.57;;
45867;SDS011;31582;45.490;7.860;2023-03-31T09:45:45;11.35;;;5.43;;
45867;SDS011;31582;45.490;7.860;2023-03-31T09:48:32;8.88;;;4.20;;
45867;SDS011;31582;45.490;7.860;2023-03-31T09:51:02;12.05;;;4.95;;
45867;SDS011;31582;45.490;7.860;2023-03-31T09:59:15;7.60;;;4.25;;
45867;SDS011;31582;45.490;7.860;2023-03-31T10:01:44;10.15;;;4.57;;
45867;SDS011;31582;45.490;7.860;2023-03-31T10:04:18;9.77;;;4.73;;
45867;SDS011;31582;45.490;7.860;2023-03-31T10:06:48;9.32;;;4.38;;
45867;SDS011;31582;45.490;7.860;2023-03-31T10:09:18;6.60;;;4.60;;
45867;SDS011;31582;45.490;7.860;2023-03-31T10:11:58;12.88;;;5.00;;
45867;SDS011;31582;45.490;7.860;2023-03-31T10:14:34;10.98;;;4.70;;
45867;SDS011;31582;45.490;7.860;2023-03-31T10:17:06;9.13;;;4.82;;
45867;SDS011;31582;45.490;7.860;2023-03-31T10:19:42;7.80;;;5.10;;
45867;SDS011;31582;45.490;7.860;2023-03-31T10:25:08;9.10;;;4.95;;
45867;SDS011;31582;45.490;7.860;2023-03-31T10:27:41;9.13;;;5.00;;
45867;SDS011;31582;45.490;7.860;2023-03-31T10:30:15;10.07;;;5.55;;
45867;SDS011;31582;45.490;7.860;2023-03-31T10:32:47;7.70;;;4.65;;
45867;SDS011;31582;45.490;7.860;2023-03-31T10:35:23;9.10;;;5.18;;
45867;SDS011;31582;45.490;7.860;2023-03-31T10:37:56;9.90;;;4.70;;
45867;SDS011;31582;45.490;7.860;2023-03-31T10:40:27;7.93;;;4.50;;
45867;SDS011;31582;45.490;7.860;2023-03-31T10:43:02;8.63;;;4.88;;
45867;SDS011;31582;45.490;7.860;2023-03-31T10:45:37;10.65;;;4.25;;
45867;SDS011;31582;45.490;7.860;2023-03-31T10:48:17;8.55;;;3.65;;
45867;SDS011;31582;45.490;7.860;2023-03-31T10:51:37;5.15;;;3.30;;
45867;SDS011;31582;45.490;7.860;2023-03-31T10:53:47;7.15;;;3.88;;
45867;SDS011;31582;45.490;7.860;2023-03-31T11:12:31;8.32;;;4.65;;
45867;SDS011;31582;45.490;7.860;2023-03-31T11:20:36;5.85;;;3.70;;
45867;SDS011;31582;45.490;7.860;2023-03-31T11:26:10;9.38;;;4.13;;
45867;SDS011;31582;45.490;7.860;2023-03-31T11:29:02;7.63;;;4.15;;
45867;SDS011;31582;45.490;7.860;2023-03-31T11:42:45;7.00;;;4.00;;
45867;SDS011;31582;45.490;7.860;2023-03-31T11:45:18;8.13;;;4.07;;
45867;SDS011;31582;45.490;7.860;2023-03-31T11:47:49;6.28;;;3.50;;
45867;SDS011;31582;45.490;7.860;2023-03-31T11:50:21;6.37;;;3.57;;
45867;SDS011;31582;45.490;7.860;2023-03-31T11:52:59;8.32;;;3.88;;
45867;SDS011;31582;45.490;7.860;2023-03-31T11:55:29;7.47;;;4.00;;
45867;SDS011;31582;45.490;7.860;2023-03-31T11:58:04;6.30;;;4.47;;
45867;SDS011;31582;45.490;7.860;2023-03-31T12:05:57;5.85;;;4.20;;
45867;SDS011;31582;45.490;7.860;2023-03-31T12:11:26;8.00;;;3.33;;
45867;SDS011;31582;45.490;7.860;2023-03-31T12:16:54;6.45;;;2.63;;
45867;SDS011;31582;45.490;7.860;2023-03-31T12:19:29;5.47;;;3.42;;
45867;SDS011;31582;45.490;7.860;2023-03-31T12:22:28;6.85;;;3.88;;
45867;SDS011;31582;45.490;7.860;2023-03-31T12:24:59;6.03;;;3.53;;
45867;SDS011;31582;45.490;7.860;2023-03-31T12:57:36;7.63;;;4.25;;
45867;SDS011;31582;45.490;7.860;2023-03-31T13:02:37;8.05;;;4.50;;
45867;SDS011;31582;45.490;7.860;2023-03-31T13:08:03;7.15;;;3.65;;
45867;SDS011;31582;45.490;7.860;2023-03-31T13:10:33;8.35;;;3.80;;
45867;SDS011;31582;45.490;7.860;2023-03-31T13:13:25;6.00;;;3.13;;
45867;SDS011;31582;45.490;7.860;2023-03-31T13:15:53;5.95;;;3.40;;
45867;SDS011;31582;45.490;7.860;2023-03-31T13:18:22;6.05;;;3.47;;
45867;SDS011;31582;45.490;7.860;2023-03-31T13:20:59;6.47;;;3.60;;
45867;SDS011;31582;45.490;7.860;2023-03-31T13:23:32;5.47;;;3.28;;
45867;SDS011;31582;45.490;7.860;2023-03-31T13:26:00;5.55;;;2.83;;
45867;SDS011;31582;45.490;7.860;2023-03-31T13:28:32;6.28;;;3.45;;
45867;SDS011;31582;45.490;7.860;2023-03-31T13:31:13;6.63;;;3.53;;
45867;SDS011;31582;45.490;7.860;2023-03-31T13:33:56;7.72;;;3.75;;
45867;SDS011;31582;45.490;7.860;2023-03-31T13:44:27;7.00;;;3.47;;
45867;SDS011;31582;45.490;7.860;2023-03-31T13:53:13;9.20;;;4.07;;
45867;SDS011;31582;45.490;7.860;2023-03-31T14:01:17;7.67;;;3.87;;
45867;SDS011;31582;45.490;7.860;2023-03-31T14:03:53;8.20;;;3.63;;
45867;SDS011;31582;45.490;7.860;2023-03-31T14:06:49;4.93;;;3.47;;
45867;SDS011;31582;45.490;7.860;2023-03-31T14:09:30;8.80;;;4.20;;
45867;SDS011;31582;45.490;7.860;2023-03-31T14:12:21;7.57;;;4.23;;
45867;SDS011;31582;45.490;7.860;2023-03-31T14:14:54;7.83;;;3.37;;
45867;SDS011;31582;45.490;7.860;2023-03-31T14:17:22;7.55;;;4.32;;
45867;SDS011;31582;45.490;7.860;2023-03-31T14:20:20;6.70;;;3.70;;
45867;SDS011;31582;45.490;7.860;2023-03-31T14:28:44;5.68;;;3.50;;
45867;SDS011;31582;45.490;7.860;2023-03-31T14:31:25;12.70;;;4.47;;
45867;SDS011;31582;45.490;7.860;2023-03-31T14:39:37;8.48;;;4.20;;
45867;SDS011;31582;45.490;7.860;2023-03-31T14:42:18;8.82;;;4.40;;
45867;SDS011;31582;45.490;7.860;2023-03-31T14:44:47;9.07;;;4.83;;
45867;SDS011;31582;45.490;7.860;2023-03-31T14:47:21;10.73;;;4.73;;
45867;SDS011;31582;45.490;7.860;2023-03-31T14:49:59;9.73;;;4.70;;
45867;SDS011;31582;45.490;7.860;2023-03-31T14:52:47;7.40;;;4.32;;
45867;SDS011;31582;45.490;7.860;2023-03-31T14:55:19;9.20;;;5.10;;
45867;SDS011;31582;45.490;7.860;2023-03-31T14:57:57;10.07;;;4.80;;
45867;SDS011;31582;45.490;7.860;2023-03-31T15:00:27;7.10;;;4.45;;
45867;SDS011;31582;45.490;7.860;2023-03-31T15:02:58;9.53;;;4.83;;
45867;SDS011;31582;45.490;7.860;2023-03-31T15:05:33;6.30;;;4.47;;
45867;SDS011;31582;45.490;7.860;2023-03-31T15:08:02;8.13;;;3.97;;
45867;SDS011;31582;45.490;7.860;2023-03-31T15:10:34;8.02;;;3.60;;
45867;SDS011;31582;45.490;7.860;2023-03-31T15:13:07;5.22;;;3.58;;
45867;SDS011;31582;45.490;7.860;2023-03-31T15:15:36;7.22;;;3.35;;
45867;SDS011;31582;45.490;7.860;2023-03-31T15:18:03;5.32;;;2.60;;
45867;SDS011;31582;45.490;7.860;2023-03-31T15:20:33;6.45;;;2.10;;
45867;SDS011;31582;45.490;7.860;2023-03-31T15:23:17;4.80;;;2.50;;
45867;SDS011;31582;45.490;7.860;2023-03-31T15:25:55;4.57;;;2.28;;
45867;SDS011;31582;45.490;7.860;2023-03-31T15:28:25;4.53;;;2.35;;
45867;SDS011;31582;45.490;7.860;2023-03-31T15:30:56;6.03;;;3.00;;
45867;SDS011;31582;45.490;7.860;2023-03-31T15:33:35;6.38;;;3.95;;
45867;SDS011;31582;45.490;7.860;2023-03-31T15:36:07;5.85;;;3.25;;
45867;SDS011;31582;45.490;7.860;2023-03-31T15:38:37;7.35;;;3.88;;
45867;SDS011;31582;45.490;7.860;2023-03-31T15:41:11;6.03;;;3.30;;
45867;SDS011;31582;45.490;7.860;2023-03-31T15:43:49;6.38;;;2.78;;
45867;SDS011;31582;45.490;7.860;2023-03-31T15:49:29;7.35;;;2.83;;
45867;SDS011;31582;45.490;7.860;2023-03-31T15:51:55;7.90;;;3.33;;
45867;SDS011;31582;45.490;7.860;2023-03-31T15:57:08;7.35;;;3.30;;
45867;SDS011;31582;45.490;7.860;2023-03-31T15:59:46;5.70;;;2.80;;
45867;SDS011;31582;45.490;7.860;2023-03-31T16:02:22;6.82;;;2.67;;
45867;SDS011;31582;45.490;7.860;2023-03-31T16:04:55;5.43;;;2.53;;
45867;SDS011;31582;45.490;7.860;2023-03-31T16:07:28;4.83;;;2.17;;
45867;SDS011;31582;45.490;7.860;2023-03-31T16:10:03;3.65;;;1.63;;
45867;SDS011;31582;45.490;7.860;2023-03-31T16:13:03;1.30;;;0.83;;
45867;SDS011;31582;45.490;7.860;2023-03-31T16:15:35;4.55;;;1.10;;
45867;SDS011;31582;45.490;7.860;2023-03-31T16:18:10;2.78;;;1.10;;
45867;SDS011;31582;45.490;7.860;2023-03-31T16:20:44;3.05;;;1.25;;
45867;SDS011;31582;45.490;7.860;2023-03-31T16:23:18;3.30;;;1.23;;
45867;SDS011;31582;45.490;7.860;2023-03-31T16:25:50;4.38;;;2.45;;
45867;SDS011;31582;45.490;7.860;2023-03-31T16:28:31;2.47;;;1.63;;
45867;SDS011;31582;45.490;7.860;2023-03-31T16:31:00;2.45;;;1.00;;
45867;SDS011;31582;45.490;7.860;2023-03-31T16:33:28;1.75;;;1.15;;
45867;SDS011;31582;45.490;7.860;2023-03-31T16:35:56;2.90;;;1.42;;
45867;SDS011;31582;45.490;7.860;2023-03-31T16:38:25;4.00;;;1.33;;
45867;SDS011;31582;45.490;7.860;2023-03-31T16:40:53;4.28;;;1.55;;
45867;SDS011;31582;45.490;7.860;2023-03-31T16:43:23;2.38;;;1.20;;
45867;SDS011;31582;45.490;7.860;2023-03-31T16:45:59;1.50;;;0.90;;
45867;SDS011;31582;45.490;7.860;2023-03-31T16:48:28;2.63;;;1.10;;
45867;SDS011;31582;45.490;7.860;2023-03-31T16:50:58;1.70;;;1.13;;
45867;SDS011;31582;45.490;7.860;2023-03-31T16:53:27;1.57;;;1.10;;
45867;SDS011;31582;45.490;7.860;2023-03-31T16:55:56;2.58;;;1.35;;
45867;SDS011;31582;45.490;7.860;2023-03-31T16:58:23;1.40;;;0.77;;
45867;SDS011;31582;45.490;7.860;2023-03-31T17:00:51;2.38;;;0.90;;
45867;SDS011;31582;45.490;7.860;2023-03-31T17:03:18;2.60;;;0.88;;
45867;SDS011;31582;45.490;7.860;2023-03-31T17:05:46;1.02;;;0.80;;
45867;SDS011;31582;45.490;7.860;2023-03-31T17:08:18;2.50;;;0.87;;
45867;SDS011;31582;45.490;7.860;2023-03-31T17:10:53;2.83;;;0.90;;
45867;SDS011;31582;45.490;7.860;2023-03-31T17:13:23;1.75;;;0.90;;
45867;SDS011;31582;45.490;7.860;2023-03-31T17:15:51;1.73;;;0.70;;
45867;SDS011;31582;45.490;7.860;2023-03-31T17:18:38;2.43;;;0.70;;
45867;SDS011;31582;45.490;7.860;2023-03-31T17:21:14;2.73;;;0.80;;
45867;SDS011;31582;45.490;7.860;2023-03-31T17:23:44;1.67;;;0.57;;
45867;SDS011;31582;45.490;7.860;2023-03-31T17:26:13;1.17;;;0.63;;
45867;SDS011;31582;45.490;7.860;2023-03-31T17:28:41;1.73;;;0.60;;
45867;SDS011;31582;45.490;7.860;2023-03-31T17:33:38;2.20;;;0.75;;
45867;SDS011;31582;45.490;7.860;2023-03-31T17:36:06;1.40;;;0.73;;
45867;SDS011;31582;45.490;7.860;2023-03-31T17:38:33;1.60;;;0.80;;
45867;SDS011;31582;45.490;7.860;2023-03-31T17:41:03;2.70;;;1.10;;
45867;SDS011;31582;45.490;7.860;2023-03-31T17:43:34;1.52;;;0.70;;
45867;SDS011;31582;45.490;7.860;2023-03-31T17:46:02;1.98;;;0.80;;
45867;SDS011;31582;45.490;7.860;2023-03-31T17:48:30;2.08;;;0.75;;
45867;SDS011;31582;45.490;7.860;2023-03-31T17:51:06;3.20;;;0.90;;
45867;SDS011;31582;45.490;7.860;2023-03-31T17:53:34;0.85;;;0.40;;
45867;SDS011;31582;45.490;7.860;2023-03-31T17:56:02;1.60;;;0.70;;
45867;SDS011;31582;45.490;7.860;2023-03-31T17:58:29;1.50;;;0.60;;
45867;SDS011;31582;45.490;7.860;2023-03-31T18:00:57;0.80;;;0.50;;
45867;SDS011;31582;45.490;7.860;2023-03-31T18:03:28;1.80;;;0.50;;
45867;SDS011;31582;45.490;7.860;2023-03-31T18:05:55;2.15;;;0.70;;
45867;SDS011;31582;45.490;7.860;2023-03-31T18:08:22;0.90;;;0.50;;
45867;SDS011;31582;45.490;7.860;2023-03-31T18:10:49;1.00;;;0.50;;
45867;SDS011;31582;45.490;7.860;2023-03-31T18:13:16;1.50;;;0.50;;
45867;SDS011;31582;45.490;7.860;2023-03-31T18:15:50;1.70;;;0.40;;
45867;SDS011;31582;45.490;7.860;2023-03-31T18:18:20;1.75;;;0.50;;
45867;SDS011;31582;45.490;7.860;2023-03-31T18:20:48;0.93;;;0.50;;
45867;SDS011;31582;45.490;7.860;2023-03-31T18:23:15;1.60;;;0.50;;
45867;SDS011;31582;45.490;7.860;2023-03-31T18:25:42;1.48;;;0.43;;
45867;SDS011;31582;45.490;7.860;2023-03-31T18:28:14;1.50;;;0.55;;
45867;SDS011;31582;45.490;7.860;2023-03-31T18:30:42;1.05;;;0.50;;
45867;SDS011;31582;45.490;7.860;2023-03-31T18:33:09;0.82;;;0.30;;
45867;SDS011;31582;45.490;7.860;2023-03-31T18:35:38;1.63;;;0.50;;
45867;SDS011;31582;45.490;7.860;2023-03-31T18:38:05;0.90;;;0.30;;
45867;SDS011;31582;45.490;7.860;2023-03-31T18:40:32;0.70;;;0.40;;
45867;SDS011;31582;45.490;7.860;2023-03-31T18:42:59;0.77;;;0.40;;
45867;SDS011;31582;45.490;7.860;2023-03-31T18:45:27;2.40;;;0.50;;
45867;SDS011;31582;45.490;7.860;2023-03-31T18:47:56;1.60;;;0.30;;
45867;SDS011;31582;45.490;7.860;2023-03-31T18:50:23;1.25;;;0.30;;
45867;SDS011;31582;45.490;7.860;2023-03-31T18:52:52;0.95;;;0.40;;
45867;SDS011;31582;45.490;7.860;2023-03-31T18:55:20;1.93;;;0.37;;
45867;SDS011;31582;45.490;7.860;2023-03-31T18:57:47;1.35;;;0.45;;
45867;SDS011;31582;45.490;7.860;2023-03-31T19:00:15;0.47;;;0.30;;
45867;SDS011;31582;45.490;7.860;2023-03-31T19:02:43;0.60;;;0.30;;
45867;SDS011;31582;45.490;7.860;2023-03-31T19:05:10;0.83;;;0.50;;
45867;SDS011;31582;45.490;7.860;2023-03-31T19:07:37;0.60;;;0.30;;
45867;SDS011;31582;45.490;7.860;2023-03-31T19:10:05;1.20;;;0.50;;
45867;SDS011;31582;45.490;7.860;2023-03-31T19:12:34;1.13;;;0.38;;
45867;SDS011;31582;45.490;7.860;2023-03-31T19:15:01;1.90;;;0.30;;
45867;SDS011;31582;45.490;7.860;2023-03-31T19:17:29;2.00;;;0.30;;
45867;SDS011;31582;45.490;7.860;2023-03-31T19:19:56;0.75;;;0.30;;
45867;SDS011;31582;45.490;7.860;2023-03-31T19:22:23;0.35;;;0.20;;
45867;SDS011;31582;45.490;7.860;2023-03-31T19:24:52;0.52;;;0.30;;
45867;SDS011;31582;45.490;7.860;2023-03-31T19:27:19;0.50;;;0.20;;
45867;SDS011;31582;45.490;7.860;2023-03-31T19:29:49;0.90;;;0.30;;
45867;SDS011;31582;45.490;7.860;2023-03-31T19:32:16;0.63;;;0.20;;
45867;SDS011;31582;45.490;7.860;2023-03-31T19:34:44;0.50;;;0.20;;
45867;SDS011;31582;45.490;7.860;2023-03-31T19:37:11;0.32;;;0.20;;
45867;SDS011;31582;45.490;7.860;2023-03-31T19:39:38;0.70;;;0.17;;
45867;SDS011;31582;45.490;7.860;2023-03-31T19:42:05;1.20;;;0.30;;
45867;SDS011;31582;45.490;7.860;2023-03-31T19:44:32;0.90;;;0.10;;
45867;SDS011;31582;45.490;7.860;2023-03-31T19:46:59;0.77;;;0.20;;
45867;SDS011;31582;45.490;7.860;2023-03-31T19:49:26;0.30;;;0.20;;
45867;SDS011;31582;45.490;7.860;2023-03-31T19:51:53;1.02;;;0.17;;
45867;SDS011;31582;45.490;7.860;2023-03-31T19:54:21;0.50;;;0.10;;
45867;SDS011;31582;45.490;7.860;2023-03-31T19:56:48;0.20;;;0.20;;
45867;SDS011;31582;45.490;7.860;2023-03-31T19:59:15;0.10;;;0.10;;
45867;SDS011;31582;45.490;7.860;2023-03-31T20:01:43;0.30;;;0.10;;
45867;SDS011;31582;45.490;7.860;2023-03-31T20:04:10;0.20;;;0.10;;
45867;SDS011;31582;45.490;7.860;2023-03-31T20:06:39;0.20;;;0.05;;
45867;SDS011;31582;45.490;7.860;2023-03-31T20:09:06;0.20;;;0.20;;
45867;SDS011;31582;45.490;7.860;2023-03-31T20:11:34;0.15;;;0.00;;
45867;SDS011;31582;45.490;7.860;2023-03-31T20:14:01;0.38;;;0.20;;
45867;SDS011;31582;45.490;7.860;2023-03-31T20:16:29;0.03;;;0.00;;
45867;SDS011;31582;45.490;7.860;2023-03-31T20:19:02;0.10;;;0.00;;
45867;SDS011;31582;45.490;7.860;2023-03-31T20:21:32;0.40;;;0.20;;
45867;SDS011;31582;45.490;7.860;2023-03-31T20:24:01;0.10;;;0.10;;
45867;SDS011;31582;45.490;7.860;2023-03-31T20:26:29;0.60;;;0.10;;
45867;SDS011;31582;45.490;7.860;2023-03-31T20:28:58;0.70;;;0.30;;
45867;SDS011;31582;45.490;7.860;2023-03-31T20:31:31;0.40;;;0.25;;
45867;SDS011;31582;45.490;7.860;2023-03-31T20:34:03;0.60;;;0.20;;
45867;SDS011;31582;45.490;7.860;2023-03-31T20:36:33;0.30;;;0.10;;
45867;SDS011;31582;45.490;7.860;2023-03-31T20:39:00;0.15;;;0.00;;
45867;SDS011;31582;45.490;7.860;2023-03-31T20:41:29;0.50;;;0.00;;
45867;SDS011;31582;45.490;7.860;2023-03-31T20:43:57;0.57;;;0.10;;
45867;SDS011;31582;45.490;7.860;2023-03-31T20:46:24;0.00;;;0.00;;
45867;SDS011;31582;45.490;7.860;2023-03-31T20:48:52;0.60;;;0.10;;
45867;SDS011;31582;45.490;7.860;2023-03-31T20:51:25;1.10;;;0.10;;
45867;SDS011;31582;45.490;7.860;2023-03-31T20:53:54;0.10;;;0.00;;
45867;SDS011;31582;45.490;7.860;2023-03-31T20:56:23;0.33;;;0.10;;
45867;SDS011;31582;45.490;7.860;2023-03-31T20:58:53;0.50;;;0.00;;
45867;SDS011;31582;45.490;7.860;2023-03-31T21:01:25;0.30;;;0.10;;
45867;SDS011;31582;45.490;7.860;2023-03-31T21:03:54;0.20;;;0.05;;
45867;SDS011;31582;45.490;7.860;2023-03-31T21:06:27;0.20;;;0.10;;